Little Current, Canada
Current Conditions -  °F | °C
As of 3:00 AM on Saturday 25 Oct 2014 (Local Time) from CYZE Reporting Station
Broken Clouds Broken Clouds  
Wind Chill: 45°   Ceiling: 21000
Heat Index: 48°   Visibility: 9mi
Dew Point: 48°   Wind: 8mph
Humidity: 100%   Direction: 210°SSW
Pressure: 29.77"   Gusts: NA
Location:  45.97°N, 81.93°W
Report Text: CYZE 250700Z AUTO 21007KT 9SM BKN210 09/09 A2977 RMK SLP084
Loading
Personal Weather Stations






























Interactive Weather Map
Tropical Storm Tracking
New forecast layout! Learn more

10-Day Weather Forecast

Advertisements
Track Severe Weather on mobile